Flight Information

DEPARTURE
SACRAMENTO, CA
Elevation:
23
Runways:
2/20 - 5503x150 - ASPH-G
H1 - 60x60 - ASPH-G
12/30 - 3837x100 - ASPH-G
ATIS:
125.5 916-428-7066
Ground:
125
Tower:
EXECUTIVE TOWER 119.5
DESTINATION
,
Elevation:
TPA:
1000 (est.)


6847.4 NM69° True-16° Var53° HDG

Flight Plan:
(click to file on line)

1. Type
2. Aircraft Identification
3. Aircraft Type / Special Equipment
4. True Airspeed
kts
5. Departure Airport
(ICAO code)
6. Arriving Airport
(ICAO code)
7. Cruising Altitude
ft
8. Alternate Airport
(ICAO code)
9. Route of Flight
10. Remarks


00:00:00 Departure ATIS: Destination ATIS:

Clearance Limit:
Route:
Altitude: Expect in minutes
Frequency:
Transponder: (7500 Hijack / 7600 Lost Comms / 7700 Emergency)


KSAC 281253Z AUTO 32004KT 10SM CLR 19/03 A2990 RMK AO2 SLP126 T01940033
Time: 2020-09-28T12:53:00Z
1601298833
Winds: 320 @ 4 kts
Visibility: 10.0 sm
Clouds (AGL): CLR
Temperature: 19.4 C
Dew Point: 3.3 C
Pressure: 29.899607 in Hgbr


Notes:

Data extracted from FAA Digital Chart Supplement. Effective: 0901Z Thursday, Sep 10, 2020 to 0901Z Thursday, Nov 5, 2020
Current ATIS data is provided courtisy of PilotEdge.